sensor_id;sensor_type;location;lat;lon;timestamp;P1;durP1;ratioP1;P2;durP2;ratioP2
20078;SDS011;10199;48.850;8.924;2023-11-18T00:00:10;2.70;;;2.50;;
20078;SDS011;10199;48.850;8.924;2023-11-18T00:02:40;3.57;;;2.63;;
20078;SDS011;10199;48.850;8.924;2023-11-18T00:05:09;2.40;;;2.20;;
20078;SDS011;10199;48.850;8.924;2023-11-18T00:07:37;2.63;;;2.37;;
20078;SDS011;10199;48.850;8.924;2023-11-18T00:10:06;2.93;;;2.47;;
20078;SDS011;10199;48.850;8.924;2023-11-18T00:12:35;3.17;;;2.30;;
20078;SDS011;10199;48.850;8.924;2023-11-18T00:15:03;3.50;;;2.40;;
20078;SDS011;10199;48.850;8.924;2023-11-18T00:17:36;2.97;;;2.67;;
20078;SDS011;10199;48.850;8.924;2023-11-18T00:20:04;4.70;;;3.20;;
20078;SDS011;10199;48.850;8.924;2023-11-18T00:22:36;3.30;;;3.00;;
20078;SDS011;10199;48.850;8.924;2023-11-18T00:25:04;3.60;;;3.30;;
20078;SDS011;10199;48.850;8.924;2023-11-18T00:27:34;3.23;;;2.80;;
20078;SDS011;10199;48.850;8.924;2023-11-18T00:30:03;3.80;;;3.40;;
20078;SDS011;10199;48.850;8.924;2023-11-18T00:32:34;5.87;;;3.70;;
20078;SDS011;10199;48.850;8.924;2023-11-18T00:35:04;5.40;;;3.93;;
20078;SDS011;10199;48.850;8.924;2023-11-18T00:37:33;6.57;;;4.33;;
20078;SDS011;10199;48.850;8.924;2023-11-18T00:40:01;5.20;;;4.13;;
20078;SDS011;10199;48.850;8.924;2023-11-18T00:42:30;5.20;;;4.70;;
20078;SDS011;10199;48.850;8.924;2023-11-18T00:44:58;6.13;;;5.20;;
20078;SDS011;10199;48.850;8.924;2023-11-18T00:47:26;6.07;;;5.43;;
20078;SDS011;10199;48.850;8.924;2023-11-18T00:49:55;4.57;;;4.17;;
20078;SDS011;10199;48.850;8.924;2023-11-18T00:52:25;7.13;;;5.63;;
20078;SDS011;10199;48.850;8.924;2023-11-18T00:54:53;6.97;;;5.50;;
20078;SDS011;10199;48.850;8.924;2023-11-18T00:57:21;5.47;;;4.97;;
20078;SDS011;10199;48.850;8.924;2023-11-18T00:59:49;4.97;;;4.47;;
20078;SDS011;10199;48.850;8.924;2023-11-18T01:02:17;5.77;;;4.50;;
20078;SDS011;10199;48.850;8.924;2023-11-18T01:04:45;4.73;;;4.27;;
20078;SDS011;10199;48.850;8.924;2023-11-18T01:07:14;6.57;;;4.53;;
20078;SDS011;10199;48.850;8.924;2023-11-18T01:09:43;5.30;;;4.80;;
20078;SDS011;10199;48.850;8.924;2023-11-18T01:12:12;5.43;;;4.90;;
20078;SDS011;10199;48.850;8.924;2023-11-18T01:14:40;5.23;;;4.67;;
20078;SDS011;10199;48.850;8.924;2023-11-18T01:17:08;5.43;;;4.70;;
20078;SDS011;10199;48.850;8.924;2023-11-18T01:19:37;6.33;;;4.90;;
20078;SDS011;10199;48.850;8.924;2023-11-18T01:22:05;7.03;;;5.20;;
20078;SDS011;10199;48.850;8.924;2023-11-18T01:24:33;9.13;;;5.03;;
20078;SDS011;10199;48.850;8.924;2023-11-18T01:27:03;7.33;;;4.80;;
20078;SDS011;10199;48.850;8.924;2023-11-18T01:29:34;5.03;;;4.53;;
20078;SDS011;10199;48.850;8.924;2023-11-18T01:32:02;5.70;;;4.80;;
20078;SDS011;10199;48.850;8.924;2023-11-18T01:34:35;7.13;;;4.70;;
20078;SDS011;10199;48.850;8.924;2023-11-18T01:37:05;5.80;;;4.50;;
20078;SDS011;10199;48.850;8.924;2023-11-18T01:39:34;5.23;;;3.80;;
20078;SDS011;10199;48.850;8.924;2023-11-18T01:42:03;4.40;;;4.00;;
20078;SDS011;10199;48.850;8.924;2023-11-18T01:44:32;4.50;;;4.10;;
20078;SDS011;10199;48.850;8.924;2023-11-18T01:47:02;4.37;;;3.97;;
20078;SDS011;10199;48.850;8.924;2023-11-18T01:49:34;4.77;;;4.20;;
20078;SDS011;10199;48.850;8.924;2023-11-18T01:52:03;5.20;;;4.70;;
20078;SDS011;10199;48.850;8.924;2023-11-18T01:54:34;6.20;;;4.47;;
20078;SDS011;10199;48.850;8.924;2023-11-18T01:57:05;4.20;;;3.73;;
20078;SDS011;10199;48.850;8.924;2023-11-18T01:59:36;3.53;;;3.20;;
20078;SDS011;10199;48.850;8.924;2023-11-18T02:02:07;4.43;;;3.50;;
20078;SDS011;10199;48.850;8.924;2023-11-18T02:04:35;4.13;;;3.60;;
20078;SDS011;10199;48.850;8.924;2023-11-18T02:07:04;4.60;;;4.03;;
20078;SDS011;10199;48.850;8.924;2023-11-18T02:09:35;4.30;;;3.50;;
20078;SDS011;10199;48.850;8.924;2023-11-18T02:12:08;4.43;;;3.40;;
20078;SDS011;10199;48.850;8.924;2023-11-18T02:14:44;3.80;;;3.43;;
20078;SDS011;10199;48.850;8.924;2023-11-18T02:17:13;4.43;;;3.40;;
20078;SDS011;10199;48.850;8.924;2023-11-18T02:19:42;3.57;;;3.27;;
20078;SDS011;10199;48.850;8.924;2023-11-18T02:22:12;4.37;;;3.50;;
20078;SDS011;10199;48.850;8.924;2023-11-18T02:24:41;5.23;;;3.73;;
20078;SDS011;10199;48.850;8.924;2023-11-18T02:27:11;5.43;;;4.00;;
20078;SDS011;10199;48.850;8.924;2023-11-18T02:29:42;5.63;;;4.33;;
20078;SDS011;10199;48.850;8.924;2023-11-18T02:32:15;5.27;;;4.77;;
20078;SDS011;10199;48.850;8.924;2023-11-18T02:34:51;5.80;;;4.60;;
20078;SDS011;10199;48.850;8.924;2023-11-18T02:37:37;5.27;;;4.43;;
20078;SDS011;10199;48.850;8.924;2023-11-18T02:40:09;4.50;;;4.10;;
20078;SDS011;10199;48.850;8.924;2023-11-18T02:42:43;5.20;;;4.70;;
20078;SDS011;10199;48.850;8.924;2023-11-18T02:45:12;6.03;;;4.80;;
20078;SDS011;10199;48.850;8.924;2023-11-18T02:47:43;5.17;;;4.67;;
20078;SDS011;10199;48.850;8.924;2023-11-18T02:50:12;4.87;;;4.43;;
20078;SDS011;10199;48.850;8.924;2023-11-18T02:52:42;5.30;;;4.80;;
20078;SDS011;10199;48.850;8.924;2023-11-18T02:55:10;5.13;;;4.63;;
20078;SDS011;10199;48.850;8.924;2023-11-18T02:57:38;5.63;;;5.07;;
20078;SDS011;10199;48.850;8.924;2023-11-18T03:00:08;5.03;;;4.53;;
20078;SDS011;10199;48.850;8.924;2023-11-18T03:02:43;5.40;;;4.87;;
20078;SDS011;10199;48.850;8.924;2023-11-18T03:05:12;5.43;;;4.70;;
20078;SDS011;10199;48.850;8.924;2023-11-18T03:07:41;5.27;;;4.30;;
20078;SDS011;10199;48.850;8.924;2023-11-18T03:10:11;6.20;;;5.30;;
20078;SDS011;10199;48.850;8.924;2023-11-18T03:12:43;6.10;;;5.10;;
20078;SDS011;10199;48.850;8.924;2023-11-18T03:15:14;6.40;;;5.43;;
20078;SDS011;10199;48.850;8.924;2023-11-18T03:17:43;5.63;;;5.10;;
20078;SDS011;10199;48.850;8.924;2023-11-18T03:20:12;5.60;;;5.00;;
20078;SDS011;10199;48.850;8.924;2023-11-18T03:22:43;4.80;;;4.30;;
20078;SDS011;10199;48.850;8.924;2023-11-18T03:25:12;4.93;;;4.43;;
20078;SDS011;10199;48.850;8.924;2023-11-18T03:27:40;6.03;;;5.10;;
20078;SDS011;10199;48.850;8.924;2023-11-18T03:30:09;4.73;;;4.30;;
20078;SDS011;10199;48.850;8.924;2023-11-18T03:32:39;4.83;;;4.20;;
20078;SDS011;10199;48.850;8.924;2023-11-18T03:35:07;6.00;;;4.50;;
20078;SDS011;10199;48.850;8.924;2023-11-18T03:37:36;5.03;;;4.53;;
20078;SDS011;10199;48.850;8.924;2023-11-18T03:40:08;5.60;;;5.00;;
20078;SDS011;10199;48.850;8.924;2023-11-18T03:42:37;6.63;;;5.17;;
20078;SDS011;10199;48.850;8.924;2023-11-18T03:45:07;4.93;;;4.33;;
20078;SDS011;10199;48.850;8.924;2023-11-18T03:47:37;5.23;;;4.40;;
20078;SDS011;10199;48.850;8.924;2023-11-18T03:50:06;4.77;;;4.20;;
20078;SDS011;10199;48.850;8.924;2023-11-18T03:52:35;4.83;;;4.33;;
20078;SDS011;10199;48.850;8.924;2023-11-18T03:55:04;4.93;;;4.43;;
20078;SDS011;10199;48.850;8.924;2023-11-18T03:57:33;4.93;;;4.23;;
20078;SDS011;10199;48.850;8.924;2023-11-18T04:00:02;5.80;;;4.40;;
20078;SDS011;10199;48.850;8.924;2023-11-18T04:02:35;4.90;;;4.40;;
20078;SDS011;10199;48.850;8.924;2023-11-18T04:05:06;4.80;;;4.30;;
20078;SDS011;10199;48.850;8.924;2023-11-18T04:07:34;5.67;;;4.17;;
20078;SDS011;10199;48.850;8.924;2023-11-18T04:10:03;5.47;;;4.40;;
20078;SDS011;10199;48.850;8.924;2023-11-18T04:12:33;4.67;;;4.13;;
20078;SDS011;10199;48.850;8.924;2023-11-18T04:15:01;5.30;;;4.80;;
20078;SDS011;10199;48.850;8.924;2023-11-18T04:17:31;6.57;;;4.33;;
20078;SDS011;10199;48.850;8.924;2023-11-18T04:19:59;4.63;;;4.03;;
20078;SDS011;10199;48.850;8.924;2023-11-18T04:22:32;3.97;;;3.53;;
20078;SDS011;10199;48.850;8.924;2023-11-18T04:25:00;4.10;;;3.33;;
20078;SDS011;10199;48.850;8.924;2023-11-18T04:27:28;4.33;;;3.67;;
20078;SDS011;10199;48.850;8.924;2023-11-18T04:29:56;4.03;;;3.57;;
20078;SDS011;10199;48.850;8.924;2023-11-18T04:32:24;5.13;;;4.27;;
20078;SDS011;10199;48.850;8.924;2023-11-18T04:34:52;4.50;;;4.10;;
20078;SDS011;10199;48.850;8.924;2023-11-18T04:37:20;5.17;;;3.70;;
20078;SDS011;10199;48.850;8.924;2023-11-18T04:39:49;5.03;;;4.40;;
20078;SDS011;10199;48.850;8.924;2023-11-18T04:42:17;4.17;;;3.40;;
20078;SDS011;10199;48.850;8.924;2023-11-18T04:44:46;4.03;;;3.63;;
20078;SDS011;10199;48.850;8.924;2023-11-18T04:47:13;5.73;;;3.77;;
20078;SDS011;10199;48.850;8.924;2023-11-18T04:49:46;6.20;;;3.83;;
20078;SDS011;10199;48.850;8.924;2023-11-18T04:52:14;3.83;;;3.50;;
20078;SDS011;10199;48.850;8.924;2023-11-18T04:54:42;3.77;;;3.30;;
20078;SDS011;10199;48.850;8.924;2023-11-18T04:57:11;4.27;;;3.87;;
20078;SDS011;10199;48.850;8.924;2023-11-18T04:59:39;4.57;;;3.93;;
20078;SDS011;10199;48.850;8.924;2023-11-18T05:02:07;4.30;;;3.73;;
20078;SDS011;10199;48.850;8.924;2023-11-18T05:04:35;4.30;;;3.60;;
20078;SDS011;10199;48.850;8.924;2023-11-18T05:07:03;5.20;;;3.77;;
20078;SDS011;10199;48.850;8.924;2023-11-18T05:09:33;5.60;;;4.67;;
20078;SDS011;10199;48.850;8.924;2023-11-18T05:12:01;28.37;;;16.33;;
20078;SDS011;10199;48.850;8.924;2023-11-18T05:14:31;9.77;;;8.03;;
20078;SDS011;10199;48.850;8.924;2023-11-18T05:16:59;6.37;;;5.50;;
20078;SDS011;10199;48.850;8.924;2023-11-18T05:19:31;7.03;;;4.87;;
20078;SDS011;10199;48.850;8.924;2023-11-18T05:21:59;4.40;;;4.00;;
20078;SDS011;10199;48.850;8.924;2023-11-18T05:24:27;6.10;;;4.60;;
20078;SDS011;10199;48.850;8.924;2023-11-18T05:26:55;4.83;;;4.33;;
20078;SDS011;10199;48.850;8.924;2023-11-18T05:29:23;5.13;;;4.47;;
20078;SDS011;10199;48.850;8.924;2023-11-18T05:31:52;4.50;;;4.10;;
20078;SDS011;10199;48.850;8.924;2023-11-18T05:34:26;5.40;;;4.30;;
20078;SDS011;10199;48.850;8.924;2023-11-18T05:36:54;4.87;;;4.00;;
20078;SDS011;10199;48.850;8.924;2023-11-18T05:39:24;4.60;;;4.17;;
20078;SDS011;10199;48.850;8.924;2023-11-18T05:41:54;4.40;;;3.70;;
20078;SDS011;10199;48.850;8.924;2023-11-18T05:44:22;5.10;;;4.27;;
20078;SDS011;10199;48.850;8.924;2023-11-18T05:46:58;5.40;;;4.27;;
20078;SDS011;10199;48.850;8.924;2023-11-18T05:49:26;4.13;;;3.70;;
20078;SDS011;10199;48.850;8.924;2023-11-18T05:51:55;5.57;;;4.10;;
20078;SDS011;10199;48.850;8.924;2023-11-18T05:54:23;4.77;;;4.10;;
20078;SDS011;10199;48.850;8.924;2023-11-18T05:56:51;4.13;;;3.67;;
20078;SDS011;10199;48.850;8.924;2023-11-18T05:59:20;4.23;;;3.47;;
20078;SDS011;10199;48.850;8.924;2023-11-18T06:01:48;4.77;;;3.80;;
20078;SDS011;10199;48.850;8.924;2023-11-18T06:04:18;4.30;;;3.83;;
20078;SDS011;10199;48.850;8.924;2023-11-18T06:06:47;4.13;;;3.60;;
20078;SDS011;10199;48.850;8.924;2023-11-18T06:09:15;4.87;;;3.90;;
20078;SDS011;10199;48.850;8.924;2023-11-18T06:11:47;4.70;;;4.23;;
20078;SDS011;10199;48.850;8.924;2023-11-18T06:14:16;4.10;;;3.70;;
20078;SDS011;10199;48.850;8.924;2023-11-18T06:16:44;4.00;;;3.60;;
20078;SDS011;10199;48.850;8.924;2023-11-18T06:19:13;5.20;;;3.50;;
20078;SDS011;10199;48.850;8.924;2023-11-18T06:21:42;6.17;;;4.13;;
20078;SDS011;10199;48.850;8.924;2023-11-18T06:24:10;4.63;;;3.80;;
20078;SDS011;10199;48.850;8.924;2023-11-18T06:26:40;6.27;;;4.47;;
20078;SDS011;10199;48.850;8.924;2023-11-18T06:29:08;5.97;;;4.73;;
20078;SDS011;10199;48.850;8.924;2023-11-18T06:31:36;6.90;;;6.20;;
20078;SDS011;10199;48.850;8.924;2023-11-18T06:34:04;19.53;;;13.60;;
20078;SDS011;10199;48.850;8.924;2023-11-18T06:36:32;7.63;;;6.80;;
20078;SDS011;10199;48.850;8.924;2023-11-18T06:39:01;12.03;;;9.20;;
20078;SDS011;10199;48.850;8.924;2023-11-18T06:41:31;5.23;;;3.70;;
20078;SDS011;10199;48.850;8.924;2023-11-18T06:44:01;4.97;;;4.47;;
20078;SDS011;10199;48.850;8.924;2023-11-18T06:46:36;3.83;;;3.43;;
20078;SDS011;10199;48.850;8.924;2023-11-18T06:49:06;4.90;;;3.37;;
20078;SDS011;10199;48.850;8.924;2023-11-18T06:51:37;4.03;;;3.43;;
20078;SDS011;10199;48.850;8.924;2023-11-18T06:54:07;4.73;;;3.47;;
20078;SDS011;10199;48.850;8.924;2023-11-18T06:56:36;3.83;;;3.40;;
20078;SDS011;10199;48.850;8.924;2023-11-18T06:59:05;5.07;;;3.70;;
20078;SDS011;10199;48.850;8.924;2023-11-18T07:01:34;6.00;;;4.83;;
20078;SDS011;10199;48.850;8.924;2023-11-18T07:04:02;7.43;;;4.50;;
20078;SDS011;10199;48.850;8.924;2023-11-18T07:06:35;4.97;;;4.53;;
20078;SDS011;10199;48.850;8.924;2023-11-18T07:09:05;6.77;;;4.40;;
20078;SDS011;10199;48.850;8.924;2023-11-18T07:11:39;3.43;;;3.10;;
20078;SDS011;10199;48.850;8.924;2023-11-18T07:14:08;3.10;;;2.80;;
20078;SDS011;10199;48.850;8.924;2023-11-18T07:16:37;3.43;;;2.80;;
20078;SDS011;10199;48.850;8.924;2023-11-18T07:19:05;3.13;;;2.83;;
20078;SDS011;10199;48.850;8.924;2023-11-18T07:21:33;2.77;;;2.57;;
20078;SDS011;10199;48.850;8.924;2023-11-18T07:24:02;5.33;;;2.50;;
20078;SDS011;10199;48.850;8.924;2023-11-18T07:26:31;2.50;;;2.30;;
20078;SDS011;10199;48.850;8.924;2023-11-18T07:28:59;2.77;;;2.57;;
20078;SDS011;10199;48.850;8.924;2023-11-18T07:31:27;3.10;;;2.40;;
20078;SDS011;10199;48.850;8.924;2023-11-18T07:33:56;3.50;;;2.60;;
20078;SDS011;10199;48.850;8.924;2023-11-18T07:36:23;4.33;;;2.80;;
20078;SDS011;10199;48.850;8.924;2023-11-18T07:38:52;4.00;;;2.97;;
20078;SDS011;10199;48.850;8.924;2023-11-18T07:41:21;3.30;;;2.90;;
20078;SDS011;10199;48.850;8.924;2023-11-18T07:43:52;4.10;;;2.87;;
20078;SDS011;10199;48.850;8.924;2023-11-18T07:46:22;3.50;;;2.90;;
20078;SDS011;10199;48.850;8.924;2023-11-18T07:48:50;4.27;;;3.07;;
20078;SDS011;10199;48.850;8.924;2023-11-18T07:51:20;4.70;;;3.50;;
20078;SDS011;10199;48.850;8.924;2023-11-18T07:53:48;3.37;;;3.07;;
20078;SDS011;10199;48.850;8.924;2023-11-18T07:56:17;4.53;;;3.07;;
20078;SDS011;10199;48.850;8.924;2023-11-18T07:58:45;3.07;;;2.50;;
20078;SDS011;10199;48.850;8.924;2023-11-18T08:01:15;5.03;;;3.13;;
20078;SDS011;10199;48.850;8.924;2023-11-18T08:03:43;4.27;;;2.73;;
20078;SDS011;10199;48.850;8.924;2023-11-18T08:06:12;5.13;;;3.20;;
20078;SDS011;10199;48.850;8.924;2023-11-18T08:08:40;4.90;;;3.30;;
20078;SDS011;10199;48.850;8.924;2023-11-18T08:11:10;3.90;;;3.10;;
20078;SDS011;10199;48.850;8.924;2023-11-18T08:13:38;3.80;;;2.70;;
20078;SDS011;10199;48.850;8.924;2023-11-18T08:16:07;3.67;;;3.00;;
20078;SDS011;10199;48.850;8.924;2023-11-18T08:18:37;2.97;;;2.57;;
20078;SDS011;10199;48.850;8.924;2023-11-18T08:21:05;3.20;;;2.90;;
20078;SDS011;10199;48.850;8.924;2023-11-18T08:23:34;4.87;;;3.37;;
20078;SDS011;10199;48.850;8.924;2023-11-18T08:26:02;3.80;;;3.40;;
20078;SDS011;10199;48.850;8.924;2023-11-18T08:28:32;2.60;;;2.40;;
20078;SDS011;10199;48.850;8.924;2023-11-18T08:31:00;3.67;;;3.20;;
20078;SDS011;10199;48.850;8.924;2023-11-18T08:33:28;3.40;;;2.93;;
20078;SDS011;10199;48.850;8.924;2023-11-18T08:35:58;3.80;;;3.40;;
20078;SDS011;10199;48.850;8.924;2023-11-18T08:38:26;3.10;;;2.63;;
20078;SDS011;10199;48.850;8.924;2023-11-18T08:40:54;4.80;;;3.70;;
20078;SDS011;10199;48.850;8.924;2023-11-18T08:43:22;3.80;;;3.30;;
20078;SDS011;10199;48.850;8.924;2023-11-18T08:45:52;5.03;;;3.30;;
20078;SDS011;10199;48.850;8.924;2023-11-18T08:48:21;3.40;;;2.70;;
20078;SDS011;10199;48.850;8.924;2023-11-18T08:50:50;3.33;;;2.87;;
20078;SDS011;10199;48.850;8.924;2023-11-18T08:53:20;5.63;;;3.20;;
20078;SDS011;10199;48.850;8.924;2023-11-18T08:55:52;4.27;;;3.30;;
20078;SDS011;10199;48.850;8.924;2023-11-18T08:58:21;4.73;;;3.47;;
20078;SDS011;10199;48.850;8.924;2023-11-18T09:00:54;3.57;;;3.27;;
20078;SDS011;10199;48.850;8.924;2023-11-18T09:03:32;3.53;;;2.90;;
20078;SDS011;10199;48.850;8.924;2023-11-18T09:06:10;3.10;;;2.80;;
20078;SDS011;10199;48.850;8.924;2023-11-18T09:08:46;8.33;;;4.40;;
20078;SDS011;10199;48.850;8.924;2023-11-18T09:11:20;4.57;;;3.47;;
20078;SDS011;10199;48.850;8.924;2023-11-18T09:13:50;9.53;;;6.53;;
20078;SDS011;10199;48.850;8.924;2023-11-18T09:16:20;4.07;;;3.17;;
20078;SDS011;10199;48.850;8.924;2023-11-18T09:18:49;5.70;;;4.03;;
20078;SDS011;10199;48.850;8.924;2023-11-18T09:21:18;4.70;;;3.30;;
20078;SDS011;10199;48.850;8.924;2023-11-18T09:23:53;4.30;;;3.40;;
20078;SDS011;10199;48.850;8.924;2023-11-18T09:26:23;3.90;;;3.40;;
20078;SDS011;10199;48.850;8.924;2023-11-18T09:28:52;5.23;;;3.83;;
20078;SDS011;10199;48.850;8.924;2023-11-18T09:31:21;3.60;;;3.30;;
20078;SDS011;10199;48.850;8.924;2023-11-18T09:33:49;13.93;;;8.60;;
20078;SDS011;10199;48.850;8.924;2023-11-18T09:36:19;4.07;;;2.90;;
20078;SDS011;10199;48.850;8.924;2023-11-18T09:38:49;4.10;;;3.20;;
20078;SDS011;10199;48.850;8.924;2023-11-18T09:41:18;4.00;;;3.13;;
20078;SDS011;10199;48.850;8.924;2023-11-18T09:43:46;4.00;;;3.30;;
20078;SDS011;10199;48.850;8.924;2023-11-18T09:46:22;6.67;;;4.63;;
20078;SDS011;10199;48.850;8.924;2023-11-18T09:48:51;3.17;;;2.70;;
20078;SDS011;10199;48.850;8.924;2023-11-18T09:51:26;2.77;;;2.40;;
20078;SDS011;10199;48.850;8.924;2023-11-18T09:53:58;4.90;;;2.60;;
20078;SDS011;10199;48.850;8.924;2023-11-18T09:56:31;3.30;;;2.80;;
20078;SDS011;10199;48.850;8.924;2023-11-18T09:59:10;3.93;;;3.10;;
20078;SDS011;10199;48.850;8.924;2023-11-18T10:01:43;4.43;;;4.00;;
20078;SDS011;10199;48.850;8.924;2023-11-18T10:04:13;4.17;;;2.63;;
20078;SDS011;10199;48.850;8.924;2023-11-18T10:06:44;6.30;;;3.13;;
20078;SDS011;10199;48.850;8.924;2023-11-18T10:09:14;5.43;;;3.60;;
20078;SDS011;10199;48.850;8.924;2023-11-18T10:11:45;4.57;;;3.23;;
20078;SDS011;10199;48.850;8.924;2023-11-18T10:14:15;3.27;;;2.20;;
20078;SDS011;10199;48.850;8.924;2023-11-18T10:16:44;3.80;;;2.20;;
20078;SDS011;10199;48.850;8.924;2023-11-18T10:19:15;3.57;;;2.10;;
20078;SDS011;10199;48.850;8.924;2023-11-18T10:21:44;4.30;;;2.10;;
20078;SDS011;10199;48.850;8.924;2023-11-18T10:24:15;2.37;;;2.17;;
20078;SDS011;10199;48.850;8.924;2023-11-18T10:26:53;2.63;;;2.40;;
20078;SDS011;10199;48.850;8.924;2023-11-18T10:29:23;4.07;;;2.23;;
20078;SDS011;10199;48.850;8.924;2023-11-18T10:32:03;2.47;;;2.27;;
20078;SDS011;10199;48.850;8.924;2023-11-18T10:34:34;1.90;;;1.70;;
20078;SDS011;10199;48.850;8.924;2023-11-18T10:37:02;2.87;;;1.97;;
20078;SDS011;10199;48.850;8.924;2023-11-18T10:39:33;3.27;;;2.47;;
20078;SDS011;10199;48.850;8.924;2023-11-18T10:42:03;4.97;;;3.20;;
20078;SDS011;10199;48.850;8.924;2023-11-18T10:44:32;2.73;;;1.60;;
20078;SDS011;10199;48.850;8.924;2023-11-18T10:47:00;3.57;;;2.07;;
20078;SDS011;10199;48.850;8.924;2023-11-18T10:49:28;2.30;;;1.87;;
20078;SDS011;10199;48.850;8.924;2023-11-18T10:52:03;3.20;;;2.63;;
20078;SDS011;10199;48.850;8.924;2023-11-18T10:54:35;3.63;;;2.50;;
20078;SDS011;10199;48.850;8.924;2023-11-18T10:57:05;2.80;;;1.60;;
20078;SDS011;10199;48.850;8.924;2023-11-18T10:59:35;4.20;;;2.70;;
20078;SDS011;10199;48.850;8.924;2023-11-18T11:02:17;2.20;;;2.00;;
20078;SDS011;10199;48.850;8.924;2023-11-18T11:04:48;2.30;;;2.00;;
20078;SDS011;10199;48.850;8.924;2023-11-18T11:07:16;3.13;;;1.87;;
20078;SDS011;10199;48.850;8.924;2023-11-18T11:09:46;2.10;;;1.90;;
20078;SDS011;10199;48.850;8.924;2023-11-18T11:12:17;3.10;;;2.50;;
20078;SDS011;10199;48.850;8.924;2023-11-18T11:14:49;2.10;;;1.93;;
20078;SDS011;10199;48.850;8.924;2023-11-18T11:17:27;4.43;;;2.40;;
20078;SDS011;10199;48.850;8.924;2023-11-18T11:19:59;3.40;;;2.30;;
20078;SDS011;10199;48.850;8.924;2023-11-18T11:22:38;4.53;;;2.37;;
20078;SDS011;10199;48.850;8.924;2023-11-18T11:25:15;2.90;;;2.60;;
20078;SDS011;10199;48.850;8.924;2023-11-18T11:27:54;3.00;;;2.53;;
20078;SDS011;10199;48.850;8.924;2023-11-18T11:30:29;2.90;;;2.47;;
20078;SDS011;10199;48.850;8.924;2023-11-18T11:33:01;3.10;;;2.63;;
20078;SDS011;10199;48.850;8.924;2023-11-18T11:35:40;5.87;;;3.53;;
20078;SDS011;10199;48.850;8.924;2023-11-18T11:38:12;3.47;;;2.73;;
20078;SDS011;10199;48.850;8.924;2023-11-18T11:40:41;4.27;;;2.67;;
20078;SDS011;10199;48.850;8.924;2023-11-18T11:43:11;5.67;;;3.10;;
20078;SDS011;10199;48.850;8.924;2023-11-18T11:45:48;4.80;;;3.40;;
20078;SDS011;10199;48.850;8.924;2023-11-18T11:48:18;4.50;;;2.53;;
20078;SDS011;10199;48.850;8.924;2023-11-18T11:50:55;4.47;;;2.27;;
20078;SDS011;10199;48.850;8.924;2023-11-18T11:53:32;4.33;;;2.63;;
20078;SDS011;10199;48.850;8.924;2023-11-18T11:56:06;3.27;;;2.53;;
20078;SDS011;10199;48.850;8.924;2023-11-18T11:58:41;4.30;;;2.80;;
20078;SDS011;10199;48.850;8.924;2023-11-18T12:01:21;3.20;;;1.93;;
20078;SDS011;10199;48.850;8.924;2023-11-18T12:03:56;2.27;;;1.93;;
20078;SDS011;10199;48.850;8.924;2023-11-18T12:06:26;3.27;;;2.70;;
20078;SDS011;10199;48.850;8.924;2023-11-18T12:08:54;3.43;;;2.17;;
20078;SDS011;10199;48.850;8.924;2023-11-18T12:11:24;2.80;;;2.50;;
20078;SDS011;10199;48.850;8.924;2023-11-18T12:14:03;2.43;;;1.63;;
20078;SDS011;10199;48.850;8.924;2023-11-18T12:16:58;3.10;;;2.47;;
20078;SDS011;10199;48.850;8.924;2023-11-18T12:19:28;2.60;;;1.90;;
20078;SDS011;10199;48.850;8.924;2023-11-18T12:21:57;3.40;;;1.90;;
20078;SDS011;10199;48.850;8.924;2023-11-18T12:24:27;3.53;;;2.13;;
20078;SDS011;10199;48.850;8.924;2023-11-18T12:26:57;2.57;;;1.90;;
20078;SDS011;10199;48.850;8.924;2023-11-18T12:29:33;3.33;;;2.10;;
20078;SDS011;10199;48.850;8.924;2023-11-18T12:32:02;3.63;;;2.50;;
20078;SDS011;10199;48.850;8.924;2023-11-18T12:34:51;2.60;;;2.40;;
20078;SDS011;10199;48.850;8.924;2023-11-18T12:37:33;3.40;;;3.10;;
20078;SDS011;10199;48.850;8.924;2023-11-18T12:43:33;3.43;;;2.93;;
20078;SDS011;10199;48.850;8.924;2023-11-18T12:46:28;3.87;;;3.03;;
20078;SDS011;10199;48.850;8.924;2023-11-18T12:49:16;2.97;;;2.33;;
20078;SDS011;10199;48.850;8.924;2023-11-18T12:51:50;2.53;;;2.20;;
20078;SDS011;10199;48.850;8.924;2023-11-18T12:54:19;2.80;;;2.17;;
20078;SDS011;10199;48.850;8.924;2023-11-18T12:56:49;5.00;;;2.23;;
20078;SDS011;10199;48.850;8.924;2023-11-18T12:59:20;4.43;;;2.70;;
20078;SDS011;10199;48.850;8.924;2023-11-18T13:01:51;3.50;;;2.70;;
20078;SDS011;10199;48.850;8.924;2023-11-18T13:04:23;2.60;;;2.40;;
20078;SDS011;10199;48.850;8.924;2023-11-18T13:06:51;2.93;;;2.60;;
20078;SDS011;10199;48.850;8.924;2023-11-18T13:09:21;3.07;;;2.60;;
20078;SDS011;10199;48.850;8.924;2023-11-18T13:11:53;4.67;;;2.40;;
20078;SDS011;10199;48.850;8.924;2023-11-18T13:14:24;3.43;;;2.40;;
20078;SDS011;10199;48.850;8.924;2023-11-18T13:16:55;3.67;;;2.10;;
20078;SDS011;10199;48.850;8.924;2023-11-18T13:19:24;2.63;;;2.10;;
20078;SDS011;10199;48.850;8.924;2023-11-18T13:21:57;3.63;;;2.30;;
20078;SDS011;10199;48.850;8.924;2023-11-18T13:24:26;2.40;;;1.70;;
20078;SDS011;10199;48.850;8.924;2023-11-18T13:26:56;2.47;;;2.10;;
20078;SDS011;10199;48.850;8.924;2023-11-18T13:29:25;2.77;;;2.17;;
20078;SDS011;10199;48.850;8.924;2023-11-18T13:31:55;2.70;;;2.13;;
20078;SDS011;10199;48.850;8.924;2023-11-18T13:34:24;4.93;;;2.90;;
20078;SDS011;10199;48.850;8.924;2023-11-18T13:36:53;4.50;;;3.40;;
20078;SDS011;10199;48.850;8.924;2023-11-18T13:39:22;5.23;;;2.77;;
20078;SDS011;10199;48.850;8.924;2023-11-18T13:41:54;4.43;;;2.60;;
20078;SDS011;10199;48.850;8.924;2023-11-18T13:44:31;4.17;;;2.10;;
20078;SDS011;10199;48.850;8.924;2023-11-18T13:47:02;2.00;;;1.70;;
20078;SDS011;10199;48.850;8.924;2023-11-18T13:49:33;2.17;;;1.60;;
20078;SDS011;10199;48.850;8.924;2023-11-18T13:52:01;2.00;;;1.70;;
20078;SDS011;10199;48.850;8.924;2023-11-18T13:54:31;2.50;;;1.90;;
20078;SDS011;10199;48.850;8.924;2023-11-18T13:56:59;2.43;;;1.93;;
20078;SDS011;10199;48.850;8.924;2023-11-18T13:59:27;2.00;;;1.80;;
20078;SDS011;10199;48.850;8.924;2023-11-18T14:01:57;5.30;;;2.13;;
20078;SDS011;10199;48.850;8.924;2023-11-18T14:04:30;2.10;;;1.90;;
20078;SDS011;10199;48.850;8.924;2023-11-18T14:07:00;2.57;;;1.40;;
20078;SDS011;10199;48.850;8.924;2023-11-18T14:09:31;2.60;;;2.00;;
20078;SDS011;10199;48.850;8.924;2023-11-18T14:12:02;2.60;;;2.00;;
20078;SDS011;10199;48.850;8.924;2023-11-18T14:14:33;3.60;;;1.70;;
20078;SDS011;10199;48.850;8.924;2023-11-18T14:17:01;5.00;;;2.87;;
20078;SDS011;10199;48.850;8.924;2023-11-18T14:19:30;2.60;;;2.00;;
20078;SDS011;10199;48.850;8.924;2023-11-18T14:21:58;5.27;;;2.77;;
20078;SDS011;10199;48.850;8.924;2023-11-18T14:24:26;2.77;;;2.43;;
20078;SDS011;10199;48.850;8.924;2023-11-18T14:26:55;4.50;;;2.67;;
20078;SDS011;10199;48.850;8.924;2023-11-18T14:29:23;3.87;;;2.70;;
20078;SDS011;10199;48.850;8.924;2023-11-18T14:31:54;3.30;;;2.40;;
20078;SDS011;10199;48.850;8.924;2023-11-18T14:34:22;4.13;;;3.00;;
20078;SDS011;10199;48.850;8.924;2023-11-18T14:36:52;6.67;;;3.43;;
20078;SDS011;10199;48.850;8.924;2023-11-18T14:39:28;4.87;;;3.70;;
20078;SDS011;10199;48.850;8.924;2023-11-18T14:41:59;6.47;;;4.87;;
20078;SDS011;10199;48.850;8.924;2023-11-18T14:44:27;6.67;;;5.33;;
20078;SDS011;10199;48.850;8.924;2023-11-18T14:46:55;4.63;;;3.37;;
20078;SDS011;10199;48.850;8.924;2023-11-18T14:49:23;3.33;;;3.03;;
20078;SDS011;10199;48.850;8.924;2023-11-18T14:51:53;6.63;;;3.57;;
20078;SDS011;10199;48.850;8.924;2023-11-18T14:54:21;3.83;;;3.27;;
20078;SDS011;10199;48.850;8.924;2023-11-18T14:56:49;3.67;;;3.10;;
20078;SDS011;10199;48.850;8.924;2023-11-18T14:59:17;5.43;;;3.63;;
20078;SDS011;10199;48.850;8.924;2023-11-18T15:01:47;8.03;;;4.80;;
20078;SDS011;10199;48.850;8.924;2023-11-18T15:04:15;5.20;;;3.40;;
20078;SDS011;10199;48.850;8.924;2023-11-18T15:06:43;4.40;;;4.00;;
20078;SDS011;10199;48.850;8.924;2023-11-18T15:09:13;4.33;;;3.93;;